In Rescue
 
Open Full Screen Window  High Contrast Mode
Wind Gusting 14 knots
07
May 20, 2019 3:11 PM EDT
Weather Information
Wind Direction
  300 °
Wind Speed
  07 kt (8 mph)
Wind Gust
  14 kt (16 mph)
Altimeter
29.94 in
Visibility
10 SM
Temperature
10° C
50° F
Dewpoint
05° C
41° F
Humidity
71%
Sky Condition
Overcast @ 2,500 ft
MVFR

METAR KBAX 201911Z AUTO 30007G14KT 10SM OVC025 10/05 A2994 RMK AO2 T01030052

FAA Disclaimer: The data displayed is for advisory purposes only and is not to be used for flight planning or operations.